sensor_id;sensor_type;location;lat;lon;timestamp;temperature;humidity
21031;DHT22;61072;47.808;7.636;2023-05-29T00:00:48;15.90;99.90
21031;DHT22;61072;47.808;7.636;2023-05-29T00:03:14;15.90;99.90
21031;DHT22;61072;47.808;7.636;2023-05-29T00:05:41;15.90;99.90
21031;DHT22;61072;47.808;7.636;2023-05-29T00:08:08;15.90;99.90
21031;DHT22;61072;47.808;7.636;2023-05-29T00:10:35;15.80;99.90
21031;DHT22;61072;47.808;7.636;2023-05-29T00:13:03;15.80;99.90
21031;DHT22;61072;47.808;7.636;2023-05-29T00:15:33;15.70;99.90
21031;DHT22;61072;47.808;7.636;2023-05-29T00:18:00;15.70;99.90
21031;DHT22;61072;47.808;7.636;2023-05-29T00:20:27;15.70;99.90
21031;DHT22;61072;47.808;7.636;2023-05-29T00:22:55;15.60;99.90
21031;DHT22;61072;47.808;7.636;2023-05-29T00:25:22;15.60;99.90
21031;DHT22;61072;47.808;7.636;2023-05-29T00:27:48;15.60;99.90
21031;DHT22;61072;47.808;7.636;2023-05-29T00:30:15;15.50;99.90
21031;DHT22;61072;47.808;7.636;2023-05-29T00:32:42;15.50;99.90
21031;DHT22;61072;47.808;7.636;2023-05-29T00:35:09;15.50;99.90
21031;DHT22;61072;47.808;7.636;2023-05-29T00:37:36;15.50;99.90
21031;DHT22;61072;47.808;7.636;2023-05-29T00:40:04;15.40;99.90
21031;DHT22;61072;47.808;7.636;2023-05-29T00:42:31;15.40;99.90
21031;DHT22;61072;47.808;7.636;2023-05-29T00:44:57;15.30;99.90
21031;DHT22;61072;47.808;7.636;2023-05-29T00:47:24;15.30;99.90
21031;DHT22;61072;47.808;7.636;2023-05-29T00:49:53;15.30;99.90
21031;DHT22;61072;47.808;7.636;2023-05-29T00:52:21;15.30;99.90
21031;DHT22;61072;47.808;7.636;2023-05-29T00:54:49;15.20;99.90
21031;DHT22;61072;47.808;7.636;2023-05-29T00:57:17;15.20;99.90
21031;DHT22;61072;47.808;7.636;2023-05-29T00:59:45;15.20;99.90
21031;DHT22;61072;47.808;7.636;2023-05-29T01:02:12;15.20;99.90
21031;DHT22;61072;47.808;7.636;2023-05-29T01:04:41;15.10;99.90
21031;DHT22;61072;47.808;7.636;2023-05-29T01:07:08;15.10;99.90
21031;DHT22;61072;47.808;7.636;2023-05-29T01:09:36;15.10;99.90
21031;DHT22;61072;47.808;7.636;2023-05-29T01:18:07;15.00;99.90
21031;DHT22;61072;47.808;7.636;2023-05-29T01:23:50;15.00;99.90
21031;DHT22;61072;47.808;7.636;2023-05-29T01:26:34;14.90;99.90
21031;DHT22;61072;47.808;7.636;2023-05-29T01:29:06;14.90;99.90
21031;DHT22;61072;47.808;7.636;2023-05-29T01:31:34;14.80;99.90
21031;DHT22;61072;47.808;7.636;2023-05-29T01:34:02;14.80;99.90
21031;DHT22;61072;47.808;7.636;2023-05-29T01:36:29;14.80;99.90
21031;DHT22;61072;47.808;7.636;2023-05-29T01:38:57;14.80;99.90
21031;DHT22;61072;47.808;7.636;2023-05-29T01:41:25;14.70;99.90
21031;DHT22;61072;47.808;7.636;2023-05-29T01:43:53;14.70;99.90
21031;DHT22;61072;47.808;7.636;2023-05-29T01:46:20;14.70;99.90
21031;DHT22;61072;47.808;7.636;2023-05-29T01:48:48;14.70;99.90
21031;DHT22;61072;47.808;7.636;2023-05-29T01:51:15;14.70;99.90
21031;DHT22;61072;47.808;7.636;2023-05-29T01:53:43;14.60;99.90
21031;DHT22;61072;47.808;7.636;2023-05-29T01:56:10;14.60;99.90
21031;DHT22;61072;47.808;7.636;2023-05-29T01:58:38;14.60;99.90
21031;DHT22;61072;47.808;7.636;2023-05-29T02:01:07;14.50;99.90
21031;DHT22;61072;47.808;7.636;2023-05-29T02:03:34;14.50;99.90
21031;DHT22;61072;47.808;7.636;2023-05-29T02:06:01;14.50;99.90
21031;DHT22;61072;47.808;7.636;2023-05-29T02:08:28;14.50;99.90
21031;DHT22;61072;47.808;7.636;2023-05-29T02:10:55;14.50;99.90
21031;DHT22;61072;47.808;7.636;2023-05-29T02:13:22;14.40;99.90
21031;DHT22;61072;47.808;7.636;2023-05-29T02:15:49;14.40;99.90
21031;DHT22;61072;47.808;7.636;2023-05-29T02:18:16;14.30;99.90
21031;DHT22;61072;47.808;7.636;2023-05-29T02:20:44;14.40;99.90
21031;DHT22;61072;47.808;7.636;2023-05-29T02:23:11;14.30;99.90
21031;DHT22;61072;47.808;7.636;2023-05-29T02:25:38;14.20;99.90
21031;DHT22;61072;47.808;7.636;2023-05-29T02:28:05;14.20;99.90
21031;DHT22;61072;47.808;7.636;2023-05-29T02:30:32;14.10;99.90
21031;DHT22;61072;47.808;7.636;2023-05-29T02:32:59;14.10;99.90
21031;DHT22;61072;47.808;7.636;2023-05-29T02:35:26;14.10;99.90
21031;DHT22;61072;47.808;7.636;2023-05-29T02:37:52;14.00;99.90
21031;DHT22;61072;47.808;7.636;2023-05-29T02:40:19;14.00;99.90
21031;DHT22;61072;47.808;7.636;2023-05-29T02:42:46;14.00;99.90
21031;DHT22;61072;47.808;7.636;2023-05-29T02:45:13;13.90;99.90
21031;DHT22;61072;47.808;7.636;2023-05-29T02:47:40;13.90;99.90
21031;DHT22;61072;47.808;7.636;2023-05-29T02:50:07;13.90;99.90
21031;DHT22;61072;47.808;7.636;2023-05-29T02:52:35;13.80;99.90
21031;DHT22;61072;47.808;7.636;2023-05-29T02:55:04;13.80;99.90
21031;DHT22;61072;47.808;7.636;2023-05-29T02:57:32;13.80;99.90
21031;DHT22;61072;47.808;7.636;2023-05-29T02:59:59;13.80;99.90
21031;DHT22;61072;47.808;7.636;2023-05-29T03:02:27;13.80;99.90
21031;DHT22;61072;47.808;7.636;2023-05-29T03:04:54;13.70;99.90
21031;DHT22;61072;47.808;7.636;2023-05-29T03:07:21;13.70;99.90
21031;DHT22;61072;47.808;7.636;2023-05-29T03:09:47;13.70;99.90
21031;DHT22;61072;47.808;7.636;2023-05-29T03:12:14;13.70;99.90
21031;DHT22;61072;47.808;7.636;2023-05-29T03:14:41;13.60;99.90
21031;DHT22;61072;47.808;7.636;2023-05-29T03:17:07;13.60;99.90
21031;DHT22;61072;47.808;7.636;2023-05-29T03:19:34;13.60;99.90
21031;DHT22;61072;47.808;7.636;2023-05-29T03:22:01;13.60;99.90
21031;DHT22;61072;47.808;7.636;2023-05-29T03:24:27;13.60;99.90
21031;DHT22;61072;47.808;7.636;2023-05-29T03:26:54;13.50;99.90
21031;DHT22;61072;47.808;7.636;2023-05-29T03:29:22;13.50;99.90
21031;DHT22;61072;47.808;7.636;2023-05-29T03:31:49;13.50;99.90
21031;DHT22;61072;47.808;7.636;2023-05-29T03:34:15;13.50;99.90
21031;DHT22;61072;47.808;7.636;2023-05-29T03:36:43;13.50;99.90
21031;DHT22;61072;47.808;7.636;2023-05-29T03:39:10;13.50;99.90
21031;DHT22;61072;47.808;7.636;2023-05-29T03:41:36;13.40;99.90
21031;DHT22;61072;47.808;7.636;2023-05-29T03:44:03;13.50;99.90
21031;DHT22;61072;47.808;7.636;2023-05-29T03:46:31;13.40;99.90
21031;DHT22;61072;47.808;7.636;2023-05-29T03:48:58;13.40;99.90
21031;DHT22;61072;47.808;7.636;2023-05-29T03:51:25;13.40;99.90
21031;DHT22;61072;47.808;7.636;2023-05-29T03:53:51;13.40;99.90
21031;DHT22;61072;47.808;7.636;2023-05-29T03:56:18;13.40;99.90
21031;DHT22;61072;47.808;7.636;2023-05-29T03:58:45;13.40;99.90
21031;DHT22;61072;47.808;7.636;2023-05-29T04:01:11;13.40;99.90
21031;DHT22;61072;47.808;7.636;2023-05-29T04:03:38;13.30;99.90
21031;DHT22;61072;47.808;7.636;2023-05-29T04:06:05;13.30;99.90
21031;DHT22;61072;47.808;7.636;2023-05-29T04:08:33;13.30;99.90
21031;DHT22;61072;47.808;7.636;2023-05-29T04:10:59;13.30;99.90
21031;DHT22;61072;47.808;7.636;2023-05-29T04:13:26;13.30;99.90
21031;DHT22;61072;47.808;7.636;2023-05-29T04:15:53;13.40;99.90
21031;DHT22;61072;47.808;7.636;2023-05-29T04:18:21;13.40;99.90
21031;DHT22;61072;47.808;7.636;2023-05-29T04:20:47;13.40;99.90
21031;DHT22;61072;47.808;7.636;2023-05-29T04:23:14;13.40;99.90
21031;DHT22;61072;47.808;7.636;2023-05-29T04:25:41;13.40;99.90
21031;DHT22;61072;47.808;7.636;2023-05-29T04:28:08;13.40;99.90
21031;DHT22;61072;47.808;7.636;2023-05-29T04:30:37;13.40;99.90
21031;DHT22;61072;47.808;7.636;2023-05-29T04:33:05;13.40;99.90
21031;DHT22;61072;47.808;7.636;2023-05-29T04:35:32;13.40;99.90
21031;DHT22;61072;47.808;7.636;2023-05-29T04:37:59;13.40;99.90
21031;DHT22;61072;47.808;7.636;2023-05-29T04:40:25;13.40;99.90
21031;DHT22;61072;47.808;7.636;2023-05-29T04:42:53;13.50;99.90
21031;DHT22;61072;47.808;7.636;2023-05-29T04:45:20;13.50;99.90
21031;DHT22;61072;47.808;7.636;2023-05-29T04:47:47;13.50;99.90
21031;DHT22;61072;47.808;7.636;2023-05-29T04:50:15;13.60;99.90
21031;DHT22;61072;47.808;7.636;2023-05-29T04:52:43;13.60;99.90
21031;DHT22;61072;47.808;7.636;2023-05-29T04:55:10;13.70;99.90
21031;DHT22;61072;47.808;7.636;2023-05-29T04:57:37;13.80;99.90
21031;DHT22;61072;47.808;7.636;2023-05-29T05:00:04;13.90;99.90
21031;DHT22;61072;47.808;7.636;2023-05-29T05:02:35;14.00;99.90
21031;DHT22;61072;47.808;7.636;2023-05-29T05:05:03;14.20;99.90
21031;DHT22;61072;47.808;7.636;2023-05-29T05:07:30;14.30;99.90
21031;DHT22;61072;47.808;7.636;2023-05-29T05:09:57;14.40;99.90
21031;DHT22;61072;47.808;7.636;2023-05-29T05:12:23;14.50;99.90
21031;DHT22;61072;47.808;7.636;2023-05-29T05:14:50;14.70;99.90
21031;DHT22;61072;47.808;7.636;2023-05-29T05:17:17;14.80;99.90
21031;DHT22;61072;47.808;7.636;2023-05-29T05:19:44;14.90;99.90
21031;DHT22;61072;47.808;7.636;2023-05-29T05:22:10;15.00;99.90
21031;DHT22;61072;47.808;7.636;2023-05-29T05:24:37;15.10;99.90
21031;DHT22;61072;47.808;7.636;2023-05-29T05:27:04;15.20;99.90
21031;DHT22;61072;47.808;7.636;2023-05-29T05:29:31;15.30;99.90
21031;DHT22;61072;47.808;7.636;2023-05-29T05:31:58;15.40;99.90
21031;DHT22;61072;47.808;7.636;2023-05-29T05:34:25;15.50;99.90
21031;DHT22;61072;47.808;7.636;2023-05-29T05:36:52;15.50;99.90
21031;DHT22;61072;47.808;7.636;2023-05-29T05:39:18;15.50;99.90
21031;DHT22;61072;47.808;7.636;2023-05-29T05:41:45;15.60;99.90
21031;DHT22;61072;47.808;7.636;2023-05-29T05:44:12;15.60;99.90
21031;DHT22;61072;47.808;7.636;2023-05-29T05:46:39;15.60;99.90
21031;DHT22;61072;47.808;7.636;2023-05-29T05:49:06;15.60;99.90
21031;DHT22;61072;47.808;7.636;2023-05-29T05:51:32;15.60;99.90
21031;DHT22;61072;47.808;7.636;2023-05-29T05:53:59;15.60;99.90
21031;DHT22;61072;47.808;7.636;2023-05-29T05:56:26;15.60;99.90
21031;DHT22;61072;47.808;7.636;2023-05-29T05:58:52;15.70;99.90
21031;DHT22;61072;47.808;7.636;2023-05-29T06:01:19;15.70;99.90
21031;DHT22;61072;47.808;7.636;2023-05-29T06:03:46;15.70;99.90
21031;DHT22;61072;47.808;7.636;2023-05-29T06:06:13;15.70;99.90
21031;DHT22;61072;47.808;7.636;2023-05-29T06:08:40;15.70;99.90
21031;DHT22;61072;47.808;7.636;2023-05-29T06:11:08;15.70;99.90
21031;DHT22;61072;47.808;7.636;2023-05-29T06:13:34;15.70;99.90
21031;DHT22;61072;47.808;7.636;2023-05-29T06:16:01;15.70;99.90
21031;DHT22;61072;47.808;7.636;2023-05-29T06:18:28;15.70;99.90
21031;DHT22;61072;47.808;7.636;2023-05-29T06:20:55;15.70;99.90
21031;DHT22;61072;47.808;7.636;2023-05-29T06:23:23;15.70;99.90
21031;DHT22;61072;47.808;7.636;2023-05-29T06:25:50;15.70;99.90
21031;DHT22;61072;47.808;7.636;2023-05-29T06:28:16;15.70;99.90
21031;DHT22;61072;47.808;7.636;2023-05-29T06:30:43;15.70;99.90
21031;DHT22;61072;47.808;7.636;2023-05-29T06:33:14;15.80;99.90
21031;DHT22;61072;47.808;7.636;2023-05-29T06:35:41;15.80;99.90
21031;DHT22;61072;47.808;7.636;2023-05-29T06:38:08;15.80;99.90
21031;DHT22;61072;47.808;7.636;2023-05-29T06:40:35;15.80;99.90
21031;DHT22;61072;47.808;7.636;2023-05-29T06:43:02;15.80;99.90
21031;DHT22;61072;47.808;7.636;2023-05-29T06:45:28;15.80;99.90
21031;DHT22;61072;47.808;7.636;2023-05-29T06:47:55;15.90;99.90
21031;DHT22;61072;47.808;7.636;2023-05-29T06:50:22;15.90;99.90
21031;DHT22;61072;47.808;7.636;2023-05-29T06:52:49;15.90;99.90
21031;DHT22;61072;47.808;7.636;2023-05-29T06:55:15;15.90;99.90
21031;DHT22;61072;47.808;7.636;2023-05-29T06:57:43;16.00;99.90
21031;DHT22;61072;47.808;7.636;2023-05-29T07:00:10;16.00;99.90
21031;DHT22;61072;47.808;7.636;2023-05-29T07:02:37;16.00;99.90
21031;DHT22;61072;47.808;7.636;2023-05-29T07:05:04;16.10;99.90
21031;DHT22;61072;47.808;7.636;2023-05-29T07:07:32;16.00;99.90
21031;DHT22;61072;47.808;7.636;2023-05-29T07:09:58;16.10;99.90
21031;DHT22;61072;47.808;7.636;2023-05-29T07:12:26;16.10;99.90
21031;DHT22;61072;47.808;7.636;2023-05-29T07:14:53;16.20;99.90
21031;DHT22;61072;47.808;7.636;2023-05-29T07:17:19;16.20;99.90
21031;DHT22;61072;47.808;7.636;2023-05-29T07:19:46;16.30;99.90
21031;DHT22;61072;47.808;7.636;2023-05-29T07:22:16;16.30;99.90
21031;DHT22;61072;47.808;7.636;2023-05-29T07:24:42;16.40;99.90
21031;DHT22;61072;47.808;7.636;2023-05-29T07:27:09;16.40;99.90
21031;DHT22;61072;47.808;7.636;2023-05-29T07:29:36;16.50;99.90
21031;DHT22;61072;47.808;7.636;2023-05-29T07:32:02;16.50;99.90
21031;DHT22;61072;47.808;7.636;2023-05-29T07:34:29;16.50;99.90
21031;DHT22;61072;47.808;7.636;2023-05-29T07:36:58;16.50;99.90
21031;DHT22;61072;47.808;7.636;2023-05-29T07:39:26;16.60;99.90
21031;DHT22;61072;47.808;7.636;2023-05-29T07:41:53;16.70;99.90
21031;DHT22;61072;47.808;7.636;2023-05-29T07:44:20;16.70;99.90
21031;DHT22;61072;47.808;7.636;2023-05-29T07:46:47;16.80;99.90
21031;DHT22;61072;47.808;7.636;2023-05-29T07:49:14;16.90;99.90
21031;DHT22;61072;47.808;7.636;2023-05-29T07:51:42;17.00;99.90
21031;DHT22;61072;47.808;7.636;2023-05-29T07:54:08;17.00;99.90
21031;DHT22;61072;47.808;7.636;2023-05-29T07:56:35;17.10;99.90
21031;DHT22;61072;47.808;7.636;2023-05-29T07:59:02;17.20;99.90
21031;DHT22;61072;47.808;7.636;2023-05-29T08:01:29;17.30;99.90
21031;DHT22;61072;47.808;7.636;2023-05-29T08:03:56;17.30;99.90
21031;DHT22;61072;47.808;7.636;2023-05-29T08:06:23;17.30;99.90
21031;DHT22;61072;47.808;7.636;2023-05-29T08:08:50;17.40;99.90
21031;DHT22;61072;47.808;7.636;2023-05-29T08:11:19;17.50;99.90
21031;DHT22;61072;47.808;7.636;2023-05-29T08:13:46;17.60;99.90
21031;DHT22;61072;47.808;7.636;2023-05-29T08:16:12;17.70;99.90
21031;DHT22;61072;47.808;7.636;2023-05-29T08:18:41;17.70;99.90
21031;DHT22;61072;47.808;7.636;2023-05-29T08:21:07;17.80;99.90
21031;DHT22;61072;47.808;7.636;2023-05-29T08:23:35;17.90;99.90
21031;DHT22;61072;47.808;7.636;2023-05-29T08:26:02;18.00;99.90
21031;DHT22;61072;47.808;7.636;2023-05-29T08:28:29;18.10;99.90
21031;DHT22;61072;47.808;7.636;2023-05-29T08:30:56;18.20;99.90
21031;DHT22;61072;47.808;7.636;2023-05-29T08:33:23;18.30;99.90
21031;DHT22;61072;47.808;7.636;2023-05-29T08:35:50;18.40;99.90
21031;DHT22;61072;47.808;7.636;2023-05-29T08:38:16;18.40;99.90
21031;DHT22;61072;47.808;7.636;2023-05-29T08:40:43;18.40;99.90
21031;DHT22;61072;47.808;7.636;2023-05-29T08:43:16;18.50;99.90
21031;DHT22;61072;47.808;7.636;2023-05-29T08:45:44;18.50;99.90
21031;DHT22;61072;47.808;7.636;2023-05-29T08:48:11;18.60;99.90
21031;DHT22;61072;47.808;7.636;2023-05-29T08:50:44;18.60;99.90
21031;DHT22;61072;47.808;7.636;2023-05-29T08:53:16;18.70;99.90
21031;DHT22;61072;47.808;7.636;2023-05-29T08:55:43;18.80;99.90
21031;DHT22;61072;47.808;7.636;2023-05-29T08:58:11;18.90;99.90
21031;DHT22;61072;47.808;7.636;2023-05-29T09:00:38;18.90;99.90
21031;DHT22;61072;47.808;7.636;2023-05-29T09:03:07;19.00;99.90
21031;DHT22;61072;47.808;7.636;2023-05-29T09:05:34;19.00;99.90
21031;DHT22;61072;47.808;7.636;2023-05-29T09:08:06;19.10;99.90
21031;DHT22;61072;47.808;7.636;2023-05-29T09:10:35;19.20;99.90
21031;DHT22;61072;47.808;7.636;2023-05-29T09:13:04;19.20;99.90
21031;DHT22;61072;47.808;7.636;2023-05-29T09:15:31;19.30;99.90
21031;DHT22;61072;47.808;7.636;2023-05-29T09:17:58;19.40;99.90
21031;DHT22;61072;47.808;7.636;2023-05-29T09:20:25;19.50;99.90
21031;DHT22;61072;47.808;7.636;2023-05-29T09:23:03;19.50;99.90
21031;DHT22;61072;47.808;7.636;2023-05-29T09:25:35;19.60;99.90
21031;DHT22;61072;47.808;7.636;2023-05-29T09:28:03;19.60;99.90
21031;DHT22;61072;47.808;7.636;2023-05-29T09:30:41;19.70;99.90
21031;DHT22;61072;47.808;7.636;2023-05-29T09:33:09;19.80;99.90
21031;DHT22;61072;47.808;7.636;2023-05-29T09:35:37;19.80;99.90
21031;DHT22;61072;47.808;7.636;2023-05-29T09:38:05;19.90;99.90
21031;DHT22;61072;47.808;7.636;2023-05-29T09:40:34;19.90;99.90
21031;DHT22;61072;47.808;7.636;2023-05-29T09:43:11;19.90;99.90
21031;DHT22;61072;47.808;7.636;2023-05-29T09:45:40;20.00;99.90
21031;DHT22;61072;47.808;7.636;2023-05-29T09:48:12;20.10;99.90
21031;DHT22;61072;47.808;7.636;2023-05-29T09:50:39;20.20;99.90
21031;DHT22;61072;47.808;7.636;2023-05-29T09:55:44;20.40;99.90
21031;DHT22;61072;47.808;7.636;2023-05-29T09:58:14;20.40;99.90
21031;DHT22;61072;47.808;7.636;2023-05-29T10:00:44;20.40;99.90
21031;DHT22;61072;47.808;7.636;2023-05-29T10:03:12;20.60;99.90
21031;DHT22;61072;47.808;7.636;2023-05-29T10:05:40;20.60;99.90
21031;DHT22;61072;47.808;7.636;2023-05-29T10:08:14;20.70;99.90
21031;DHT22;61072;47.808;7.636;2023-05-29T10:10:44;20.80;99.90
21031;DHT22;61072;47.808;7.636;2023-05-29T10:13:12;20.90;99.90
21031;DHT22;61072;47.808;7.636;2023-05-29T10:15:41;20.90;99.90
21031;DHT22;61072;47.808;7.636;2023-05-29T10:18:20;21.00;99.90
21031;DHT22;61072;47.808;7.636;2023-05-29T10:20:50;21.10;99.90
21031;DHT22;61072;47.808;7.636;2023-05-29T10:23:24;21.10;99.90
21031;DHT22;61072;47.808;7.636;2023-05-29T10:25:58;21.20;99.90
21031;DHT22;61072;47.808;7.636;2023-05-29T10:28:28;21.20;99.90
21031;DHT22;61072;47.808;7.636;2023-05-29T10:31:08;21.30;99.90
21031;DHT22;61072;47.808;7.636;2023-05-29T10:36:37;21.50;99.90
21031;DHT22;61072;47.808;7.636;2023-05-29T10:39:05;21.60;99.90
21031;DHT22;61072;47.808;7.636;2023-05-29T10:41:32;21.70;99.90
21031;DHT22;61072;47.808;7.636;2023-05-29T10:44:01;21.70;99.90
21031;DHT22;61072;47.808;7.636;2023-05-29T10:49:21;21.80;99.90
21031;DHT22;61072;47.808;7.636;2023-05-29T10:51:48;21.80;99.90
21031;DHT22;61072;47.808;7.636;2023-05-29T10:54:15;21.90;99.90
21031;DHT22;61072;47.808;7.636;2023-05-29T10:56:52;22.00;99.90
21031;DHT22;61072;47.808;7.636;2023-05-29T10:59:19;22.10;99.90
21031;DHT22;61072;47.808;7.636;2023-05-29T11:01:46;22.20;99.90
21031;DHT22;61072;47.808;7.636;2023-05-29T11:06:48;22.30;99.90
21031;DHT22;61072;47.808;7.636;2023-05-29T11:09:37;22.30;99.90
21031;DHT22;61072;47.808;7.636;2023-05-29T11:12:17;22.40;99.90
21031;DHT22;61072;47.808;7.636;2023-05-29T11:25:32;22.80;99.90
21031;DHT22;61072;47.808;7.636;2023-05-29T11:28:00;22.80;99.90
21031;DHT22;61072;47.808;7.636;2023-05-29T11:30:27;22.90;99.90
21031;DHT22;61072;47.808;7.636;2023-05-29T11:32:54;23.00;99.90
21031;DHT22;61072;47.808;7.636;2023-05-29T11:35:27;23.00;99.90
21031;DHT22;61072;47.808;7.636;2023-05-29T11:37:56;23.00;99.90
21031;DHT22;61072;47.808;7.636;2023-05-29T11:40:24;23.20;99.90
21031;DHT22;61072;47.808;7.636;2023-05-29T11:42:51;23.10;99.90
21031;DHT22;61072;47.808;7.636;2023-05-29T11:45:20;23.20;99.90
21031;DHT22;61072;47.808;7.636;2023-05-29T11:50:19;23.30;99.90
21031;DHT22;61072;47.808;7.636;2023-05-29T11:52:47;23.30;99.90
21031;DHT22;61072;47.808;7.636;2023-05-29T11:55:13;23.40;99.90
21031;DHT22;61072;47.808;7.636;2023-05-29T11:57:40;23.50;99.90
21031;DHT22;61072;47.808;7.636;2023-05-29T12:00:12;23.50;99.90
21031;DHT22;61072;47.808;7.636;2023-05-29T12:02:39;23.60;99.90
21031;DHT22;61072;47.808;7.636;2023-05-29T12:05:06;23.60;99.90
21031;DHT22;61072;47.808;7.636;2023-05-29T12:07:34;23.60;99.90
21031;DHT22;61072;47.808;7.636;2023-05-29T12:10:11;23.60;99.90
21031;DHT22;61072;47.808;7.636;2023-05-29T12:12:38;23.70;99.90
21031;DHT22;61072;47.808;7.636;2023-05-29T12:15:07;23.70;99.90
21031;DHT22;61072;47.808;7.636;2023-05-29T12:17:35;23.80;99.90
21031;DHT22;61072;47.808;7.636;2023-05-29T12:20:04;23.80;99.90
21031;DHT22;61072;47.808;7.636;2023-05-29T12:22:34;23.80;99.90
21031;DHT22;61072;47.808;7.636;2023-05-29T12:27:39;23.90;99.90
21031;DHT22;61072;47.808;7.636;2023-05-29T12:30:10;23.90;99.90
21031;DHT22;61072;47.808;7.636;2023-05-29T12:32:44;24.00;99.90
21031;DHT22;61072;47.808;7.636;2023-05-29T12:38:08;24.00;99.90
21031;DHT22;61072;47.808;7.636;2023-05-29T12:40:35;24.00;99.90
21031;DHT22;61072;47.808;7.636;2023-05-29T12:43:06;24.00;99.90
21031;DHT22;61072;47.808;7.636;2023-05-29T12:45:35;24.10;99.90
21031;DHT22;61072;47.808;7.636;2023-05-29T12:48:06;24.10;99.90
21031;DHT22;61072;47.808;7.636;2023-05-29T12:50:34;24.10;99.90
21031;DHT22;61072;47.808;7.636;2023-05-29T12:53:08;24.20;99.90
21031;DHT22;61072;47.808;7.636;2023-05-29T12:55:37;24.20;99.90
21031;DHT22;61072;47.808;7.636;2023-05-29T12:58:06;24.30;99.90
21031;DHT22;61072;47.808;7.636;2023-05-29T13:00:35;24.30;99.90
21031;DHT22;61072;47.808;7.636;2023-05-29T13:03:02;24.40;99.90
21031;DHT22;61072;47.808;7.636;2023-05-29T13:05:29;24.40;99.90
21031;DHT22;61072;47.808;7.636;2023-05-29T13:07:57;24.50;99.90
21031;DHT22;61072;47.808;7.636;2023-05-29T13:10:25;24.50;99.90
21031;DHT22;61072;47.808;7.636;2023-05-29T13:12:53;24.50;99.90
21031;DHT22;61072;47.808;7.636;2023-05-29T13:15:22;24.60;99.90
21031;DHT22;61072;47.808;7.636;2023-05-29T13:17:49;24.60;99.90
21031;DHT22;61072;47.808;7.636;2023-05-29T13:20:17;24.60;99.90
21031;DHT22;61072;47.808;7.636;2023-05-29T13:22:46;24.70;99.90
21031;DHT22;61072;47.808;7.636;2023-05-29T13:25:14;24.70;99.90
21031;DHT22;61072;47.808;7.636;2023-05-29T13:27:43;24.70;99.90
21031;DHT22;61072;47.808;7.636;2023-05-29T13:30:11;24.70;99.90
21031;DHT22;61072;47.808;7.636;2023-05-29T13:32:39;24.80;99.90
21031;DHT22;61072;47.808;7.636;2023-05-29T13:35:07;24.80;99.90
21031;DHT22;61072;47.808;7.636;2023-05-29T13:37:36;24.90;99.90
21031;DHT22;61072;47.808;7.636;2023-05-29T13:40:04;25.00;99.90
21031;DHT22;61072;47.808;7.636;2023-05-29T13:42:32;25.00;99.90
21031;DHT22;61072;47.808;7.636;2023-05-29T13:44:58;25.00;99.90
21031;DHT22;61072;47.808;7.636;2023-05-29T13:47:25;25.00;99.90
21031;DHT22;61072;47.808;7.636;2023-05-29T13:49:55;25.00;99.90
21031;DHT22;61072;47.808;7.636;2023-05-29T13:52:22;25.00;99.90
21031;DHT22;61072;47.808;7.636;2023-05-29T13:54:49;25.00;99.90
21031;DHT22;61072;47.808;7.636;2023-05-29T13:57:16;25.10;99.90
21031;DHT22;61072;47.808;7.636;2023-05-29T13:59:42;25.10;99.90
21031;DHT22;61072;47.808;7.636;2023-05-29T14:02:09;25.10;99.90
21031;DHT22;61072;47.808;7.636;2023-05-29T14:04:36;25.10;99.90
21031;DHT22;61072;47.808;7.636;2023-05-29T14:07:03;25.10;99.90
21031;DHT22;61072;47.808;7.636;2023-05-29T14:09:29;25.10;99.90
21031;DHT22;61072;47.808;7.636;2023-05-29T14:11:58;25.10;99.90
21031;DHT22;61072;47.808;7.636;2023-05-29T14:14:25;25.10;99.90
21031;DHT22;61072;47.808;7.636;2023-05-29T14:16:53;25.10;99.90
21031;DHT22;61072;47.808;7.636;2023-05-29T14:19:22;25.20;99.90
21031;DHT22;61072;47.808;7.636;2023-05-29T14:21:49;25.20;99.90
21031;DHT22;61072;47.808;7.636;2023-05-29T14:24:16;25.20;99.90
21031;DHT22;61072;47.808;7.636;2023-05-29T14:26:44;25.20;99.90
21031;DHT22;61072;47.808;7.636;2023-05-29T14:29:13;25.20;99.90
21031;DHT22;61072;47.808;7.636;2023-05-29T14:31:41;25.20;99.90
21031;DHT22;61072;47.808;7.636;2023-05-29T14:34:09;25.20;99.90
21031;DHT22;61072;47.808;7.636;2023-05-29T14:36:36;25.20;99.90
21031;DHT22;61072;47.808;7.636;2023-05-29T14:39:04;25.20;99.90
21031;DHT22;61072;47.808;7.636;2023-05-29T14:41:31;25.30;99.90
21031;DHT22;61072;47.808;7.636;2023-05-29T14:43:58;25.30;99.90
21031;DHT22;61072;47.808;7.636;2023-05-29T14:46:26;25.30;99.90
21031;DHT22;61072;47.808;7.636;2023-05-29T14:48:54;25.30;99.90
21031;DHT22;61072;47.808;7.636;2023-05-29T14:51:21;25.30;99.90
21031;DHT22;61072;47.808;7.636;2023-05-29T14:53:50;25.30;99.90
21031;DHT22;61072;47.808;7.636;2023-05-29T14:56:16;25.30;99.90
21031;DHT22;61072;47.808;7.636;2023-05-29T14:58:45;25.30;99.90
21031;DHT22;61072;47.808;7.636;2023-05-29T15:01:15;25.30;99.90
21031;DHT22;61072;47.808;7.636;2023-05-29T15:03:42;25.30;99.90
21031;DHT22;61072;47.808;7.636;2023-05-29T15:06:11;25.30;99.90
21031;DHT22;61072;47.808;7.636;2023-05-29T15:08:41;25.30;99.90
21031;DHT22;61072;47.808;7.636;2023-05-29T15:11:10;25.30;99.90
21031;DHT22;61072;47.808;7.636;2023-05-29T15:13:39;25.30;99.90
21031;DHT22;61072;47.808;7.636;2023-05-29T15:16:05;25.30;99.90
21031;DHT22;61072;47.808;7.636;2023-05-29T15:18:33;25.30;99.90
21031;DHT22;61072;47.808;7.636;2023-05-29T15:21:00;25.40;99.90
21031;DHT22;61072;47.808;7.636;2023-05-29T15:23:27;25.40;99.90
21031;DHT22;61072;47.808;7.636;2023-05-29T15:25:54;25.40;99.90
21031;DHT22;61072;47.808;7.636;2023-05-29T15:28:21;25.40;99.90
21031;DHT22;61072;47.808;7.636;2023-05-29T15:30:48;25.40;99.90
21031;DHT22;61072;47.808;7.636;2023-05-29T15:33:15;25.40;99.90
21031;DHT22;61072;47.808;7.636;2023-05-29T15:35:41;25.30;99.90
21031;DHT22;61072;47.808;7.636;2023-05-29T15:38:09;25.30;99.90
21031;DHT22;61072;47.808;7.636;2023-05-29T15:40:39;25.30;99.90
21031;DHT22;61072;47.808;7.636;2023-05-29T15:43:08;25.40;99.90
21031;DHT22;61072;47.808;7.636;2023-05-29T15:45:36;25.40;99.90
21031;DHT22;61072;47.808;7.636;2023-05-29T15:48:03;25.40;99.90
21031;DHT22;61072;47.808;7.636;2023-05-29T15:50:30;25.40;99.90
21031;DHT22;61072;47.808;7.636;2023-05-29T15:52:57;25.40;99.90
21031;DHT22;61072;47.808;7.636;2023-05-29T15:55:23;25.30;99.90
21031;DHT22;61072;47.808;7.636;2023-05-29T15:57:50;25.30;99.90
21031;DHT22;61072;47.808;7.636;2023-05-29T16:00:18;25.30;99.90
21031;DHT22;61072;47.808;7.636;2023-05-29T16:02:44;25.30;99.90
21031;DHT22;61072;47.808;7.636;2023-05-29T16:05:12;25.30;99.90
21031;DHT22;61072;47.808;7.636;2023-05-29T16:07:38;25.40;99.90
21031;DHT22;61072;47.808;7.636;2023-05-29T16:10:06;25.40;99.90
21031;DHT22;61072;47.808;7.636;2023-05-29T16:12:33;25.40;99.90